createdAt,value
2023-02-28T00:01:55.457Z,64.83
2023-02-28T00:05:04.559Z,64.83
2023-02-28T00:08:08.404Z,64.91
2023-02-28T00:11:14.493Z,63.92
2023-02-28T00:14:18.410Z,63.56
2023-02-28T00:17:23.799Z,63.65
2023-02-28T00:20:27.916Z,63.31
2023-02-28T00:23:32.142Z,63.22
2023-02-28T00:26:36.083Z,63.62
2023-02-28T00:29:40.396Z,64.38
2023-02-28T00:32:46.092Z,64.43
2023-02-28T00:35:50.015Z,64.00
2023-02-28T00:38:53.926Z,64.31
2023-02-28T00:41:57.729Z,65.46
2023-02-28T00:45:01.526Z,64.08
2023-02-28T00:48:07.370Z,63.81
2023-02-28T00:51:11.395Z,63.16
2023-02-28T00:54:15.470Z,63.05
2023-02-28T00:57:19.224Z,63.68
2023-02-28T01:00:23.233Z,63.25
2023-02-28T01:03:29.175Z,62.99
2023-02-28T01:06:33.206Z,63.54
2023-02-28T01:09:36.997Z,62.95
2023-02-28T01:12:41.848Z,64.55
2023-02-28T01:15:51.521Z,64.24
2023-02-28T01:18:57.179Z,64.08
2023-02-28T01:22:03.952Z,63.50
2023-02-28T01:25:08.394Z,64.42
2023-02-28T01:28:12.106Z,63.35
2023-02-28T01:31:16.260Z,63.47
2023-02-28T01:34:21.491Z,63.17
2023-02-28T01:37:25.184Z,62.35
2023-02-28T01:40:28.805Z,63.44
2023-02-28T01:43:34.229Z,63.47
2023-02-28T01:46:38.856Z,63.84
2023-02-28T01:49:45.301Z,64.01
2023-02-28T01:52:51.456Z,65.40
2023-02-28T01:55:56.504Z,65.23
2023-02-28T01:59:00.322Z,65.12
2023-02-28T02:02:04.969Z,65.23
2023-02-28T02:05:13.372Z,65.06
2023-02-28T02:08:21.396Z,65.77
2023-02-28T02:11:30.987Z,66.54
2023-02-28T02:14:46.159Z,67.29
2023-02-28T02:17:54.379Z,67.22
2023-02-28T02:21:30.546Z,67.97
2023-02-28T02:25:02.226Z,68.54
2023-02-28T02:28:47.758Z,70.54
2023-02-28T02:32:18.409Z,73.12
2023-02-28T02:35:30.071Z,78.24
2023-02-28T02:38:40.802Z,79.70
2023-02-28T02:41:51.820Z,79.54
2023-02-28T02:45:01.010Z,79.65
2023-02-28T02:48:08.730Z,76.81
2023-02-28T02:51:17.312Z,76.50
2023-02-28T02:54:25.328Z,76.90
2023-02-28T02:57:34.770Z,77.35
2023-02-28T03:00:43.702Z,77.54
2023-02-28T03:03:48.265Z,77.74
2023-02-28T03:06:55.984Z,77.44
2023-02-28T03:10:00.471Z,77.30
2023-02-28T03:13:20.491Z,78.64
2023-02-28T03:16:46.743Z,78.99
2023-02-28T03:19:58.087Z,78.21
2023-02-28T03:23:18.960Z,79.58
2023-02-28T03:26:29.060Z,78.99
2023-02-28T03:29:38.000Z,79.02
2023-02-28T03:32:45.497Z,79.42
2023-02-28T03:35:55.569Z,81.33
2023-02-28T03:39:04.460Z,81.18
2023-02-28T03:42:11.984Z,82.68
2023-02-28T03:45:20.686Z,82.33
2023-02-28T03:48:30.130Z,83.47
2023-02-28T03:51:36.113Z,82.76
2023-02-28T03:54:46.378Z,83.60
2023-02-28T03:57:59.302Z,82.53
2023-02-28T04:01:09.889Z,81.91
2023-02-28T04:04:14.762Z,81.10
2023-02-28T04:07:19.306Z,82.16
2023-02-28T04:10:24.620Z,81.69
2023-02-28T04:13:28.419Z,82.87
2023-02-28T04:16:35.424Z,84.23
2023-02-28T04:19:39.816Z,84.07
2023-02-28T04:22:43.551Z,83.19
2023-02-28T04:25:48.675Z,83.75
2023-02-28T04:28:52.424Z,83.83
2023-02-28T04:31:59.135Z,83.67
2023-02-28T04:35:03.802Z,84.78
2023-02-28T04:38:07.314Z,84.48
2023-02-28T04:41:12.643Z,83.11
2023-02-28T04:44:17.367Z,82.09
2023-02-28T04:47:21.122Z,81.94
2023-02-28T04:50:24.865Z,81.58
2023-02-28T04:53:29.752Z,82.63
2023-02-28T04:56:34.962Z,82.06
2023-02-28T04:59:38.577Z,82.84
2023-02-28T05:02:42.401Z,84.46
2023-02-28T05:05:46.051Z,83.75
2023-02-28T05:08:49.913Z,82.35
2023-02-28T05:11:55.069Z,81.59
2023-02-28T05:14:58.862Z,83.39
2023-02-28T05:18:02.403Z,82.58
2023-02-28T05:21:06.191Z,82.41
2023-02-28T05:24:12.955Z,82.31
2023-02-28T05:27:18.149Z,83.44
2023-02-28T05:30:22.220Z,85.34
2023-02-28T05:33:26.030Z,84.79
2023-02-28T05:36:29.850Z,84.62
2023-02-28T05:39:33.504Z,84.33
2023-02-28T05:42:38.645Z,83.46
2023-02-28T05:45:42.381Z,84.00
2023-02-28T05:48:50.260Z,84.29
2023-02-28T05:51:53.903Z,82.20
2023-02-28T05:54:57.604Z,82.92
2023-02-28T05:58:02.952Z,83.55
2023-02-28T06:01:23.993Z,84.41
2023-02-28T06:04:31.980Z,83.67
2023-02-28T06:07:36.024Z,85.39
2023-02-28T06:10:39.819Z,84.42
2023-02-28T06:13:45.075Z,84.69
2023-02-28T06:16:50.089Z,83.86
2023-02-28T06:19:54.131Z,83.18
2023-02-28T06:22:59.737Z,83.26
2023-02-28T06:26:03.607Z,83.75
2023-02-28T06:29:08.897Z,84.39
2023-02-28T06:32:12.805Z,83.93
2023-02-28T06:35:16.870Z,83.91
2023-02-28T06:38:21.384Z,82.99
2023-02-28T06:41:26.657Z,84.63
2023-02-28T06:44:36.495Z,84.16
2023-02-28T06:47:42.231Z,83.46
2023-02-28T06:50:46.344Z,81.07
2023-02-28T06:53:50.170Z,80.60
2023-02-28T06:56:55.468Z,82.37
2023-02-28T07:00:01.388Z,82.29
2023-02-28T07:03:05.184Z,82.14
2023-02-28T07:06:09.380Z,83.56
2023-02-28T07:09:13.206Z,83.32
2023-02-28T07:12:17.070Z,84.07
2023-02-28T07:15:22.325Z,83.09
2023-02-28T07:18:26.341Z,81.47
2023-02-28T07:21:30.541Z,79.99
2023-02-28T07:24:34.706Z,79.00
2023-02-28T07:27:38.604Z,77.80
2023-02-28T07:30:43.950Z,81.88
2023-02-28T07:33:47.880Z,80.05
2023-02-28T07:36:54.695Z,80.05
2023-02-28T07:39:58.725Z,81.19
2023-02-28T07:43:02.812Z,80.85
2023-02-28T07:46:10.845Z,82.25
2023-02-28T07:49:14.670Z,81.66
2023-02-28T07:52:18.542Z,79.68
2023-02-28T07:55:22.419Z,79.48
2023-02-28T07:58:27.143Z,78.88
2023-02-28T08:01:32.800Z,79.30
2023-02-28T08:04:36.908Z,79.39
2023-02-28T08:07:40.721Z,79.80
2023-02-28T08:10:45.066Z,78.10
2023-02-28T08:13:48.902Z,79.27
2023-02-28T08:16:54.023Z,79.20
2023-02-28T08:19:57.742Z,78.40
2023-02-28T08:23:01.578Z,81.15
2023-02-28T08:26:06.477Z,82.97
2023-02-28T08:29:10.281Z,83.29
2023-02-28T08:32:28.932Z,80.96
2023-02-28T08:35:33.719Z,79.62
2023-02-28T08:38:37.649Z,78.26
2023-02-28T08:41:42.482Z,80.70
2023-02-28T08:44:46.250Z,79.27
2023-02-28T08:47:53.728Z,77.79
2023-02-28T08:51:06.758Z,78.58
2023-02-28T08:54:13.773Z,78.85
2023-02-28T08:57:17.574Z,79.85
2023-02-28T09:00:22.783Z,79.65
2023-02-28T09:03:28.901Z,79.17
2023-02-28T09:06:32.893Z,78.67
2023-02-28T09:09:36.978Z,77.67
2023-02-28T09:12:40.983Z,78.96
2023-02-28T09:15:44.799Z,77.83
2023-02-28T09:18:50.668Z,81.54
2023-02-28T09:21:54.450Z,80.82
2023-02-28T09:24:58.313Z,79.98
2023-02-28T09:28:02.417Z,79.43
2023-02-28T09:31:06.442Z,79.72
2023-02-28T09:34:11.792Z,78.72
2023-02-28T09:37:15.642Z,78.54
2023-02-28T09:40:21.170Z,78.73
2023-02-28T09:43:28.045Z,77.40
2023-02-28T09:46:36.054Z,77.69
2023-02-28T09:49:45.066Z,77.11
2023-02-28T09:52:51.492Z,78.21
2023-02-28T09:56:00.198Z,79.55
2023-02-28T09:59:12.489Z,79.86
2023-02-28T10:02:39.273Z,79.02
2023-02-28T10:05:54.631Z,77.46
2023-02-28T10:09:02.787Z,77.45
2023-02-28T10:12:08.261Z,78.38
2023-02-28T10:15:16.948Z,80.00
2023-02-28T10:18:27.125Z,78.88
2023-02-28T10:21:37.852Z,78.67
2023-02-28T10:24:44.796Z,78.32
2023-02-28T10:27:48.554Z,77.68
2023-02-28T10:30:55.117Z,77.83
2023-02-28T10:33:59.094Z,78.37
2023-02-28T10:37:08.593Z,80.28
2023-02-28T10:40:30.647Z,79.63
2023-02-28T10:43:34.478Z,81.04
2023-02-28T10:46:38.438Z,80.90
2023-02-28T10:49:50.737Z,81.68
2023-02-28T10:52:56.918Z,81.68
2023-02-28T10:56:03.300Z,82.55
2023-02-28T10:59:30.603Z,81.38
2023-02-28T11:02:36.890Z,81.04
2023-02-28T11:05:42.565Z,81.16
2023-02-28T11:08:50.474Z,80.68
2023-02-28T11:11:54.953Z,82.13
2023-02-28T11:15:02.503Z,83.06
2023-02-28T11:18:24.067Z,84.06
2023-02-28T11:21:31.893Z,84.61
2023-02-28T11:24:44.613Z,83.58
2023-02-28T11:27:51.300Z,84.60
2023-02-28T11:31:08.345Z,84.25
2023-02-28T11:34:28.686Z,86.45
2023-02-28T11:37:33.921Z,84.76
2023-02-28T11:40:49.272Z,85.98
2023-02-28T11:44:08.288Z,85.72
2023-02-28T11:47:18.604Z,87.18
2023-02-28T11:50:33.793Z,87.00
2023-02-28T11:53:52.287Z,88.24
2023-02-28T11:57:02.624Z,91.98
2023-02-28T12:00:21.924Z,93.25
2023-02-28T12:03:33.728Z,92.24
2023-02-28T12:06:45.939Z,92.87
2023-02-28T12:09:59.917Z,91.65
2023-02-28T12:13:15.801Z,91.36
2023-02-28T12:16:38.869Z,90.75
2023-02-28T12:19:50.112Z,89.61
2023-02-28T12:23:01.505Z,89.50
2023-02-28T12:26:16.448Z,91.29
2023-02-28T12:29:25.302Z,90.68
2023-02-28T12:32:34.757Z,91.81
2023-02-28T12:35:47.034Z,91.63
2023-02-28T12:38:58.909Z,92.71
2023-02-28T12:42:08.936Z,93.68
2023-02-28T12:45:21.459Z,93.44
2023-02-28T12:48:32.138Z,92.79
2023-02-28T12:51:38.257Z,92.71
2023-02-28T12:54:52.974Z,92.17
2023-02-28T12:58:05.909Z,93.34
2023-02-28T13:01:45.709Z,92.78
2023-02-28T13:05:26.192Z,91.24
2023-02-28T13:09:04.302Z,92.18
2023-02-28T13:12:16.715Z,92.95
2023-02-28T13:15:25.410Z,94.81
2023-02-28T13:18:38.672Z,94.37
2023-02-28T13:21:48.402Z,94.55
2023-02-28T13:24:54.503Z,95.28
2023-02-28T13:28:02.135Z,98.48
2023-02-28T13:31:07.991Z,98.26
2023-02-28T13:34:18.180Z,98.41
2023-02-28T13:37:44.232Z,98.38
2023-02-28T13:40:48.054Z,99.48
2023-02-28T13:44:13.984Z,100.00
2023-02-28T13:47:32.106Z,100.00
2023-02-28T13:50:40.153Z,100.00
2023-02-28T13:54:02.849Z,100.00
2023-02-28T13:57:20.419Z,100.00
2023-02-28T14:00:34.600Z,100.00
2023-02-28T14:03:59.041Z,100.00
2023-02-28T14:07:05.611Z,99.39
2023-02-28T14:10:22.389Z,97.25
2023-02-28T14:13:47.957Z,98.64
2023-02-28T14:16:52.233Z,98.48
2023-02-28T14:19:56.166Z,97.88
2023-02-28T14:23:10.317Z,98.46
2023-02-28T14:26:29.570Z,96.79
2023-02-28T14:29:50.704Z,98.91
2023-02-28T14:33:08.082Z,98.81
2023-02-28T14:36:22.483Z,98.58
2023-02-28T14:39:28.767Z,98.67
2023-02-28T14:42:34.301Z,99.82
2023-02-28T14:45:39.727Z,99.81
2023-02-28T14:48:43.549Z,99.44
2023-02-28T14:51:48.528Z,99.85
2023-02-28T14:54:57.162Z,100.00
2023-02-28T14:58:04.546Z,100.00
2023-02-28T15:01:08.525Z,100.00
2023-02-28T15:04:30.018Z,100.00
2023-02-28T15:07:34.099Z,100.00
2023-02-28T15:10:41.472Z,100.00
2023-02-28T15:13:48.061Z,99.00
2023-02-28T15:16:58.779Z,98.67
2023-02-28T15:20:03.496Z,99.50
2023-02-28T15:23:07.406Z,100.00
2023-02-28T15:26:16.770Z,100.00
2023-02-28T15:29:23.661Z,100.00
2023-02-28T15:32:31.261Z,100.00
2023-02-28T15:35:36.102Z,100.00
2023-02-28T15:38:39.973Z,100.00
2023-02-28T15:41:45.256Z,100.00
2023-02-28T15:44:49.515Z,100.00
2023-02-28T15:47:54.661Z,100.00
2023-02-28T15:51:03.489Z,100.00
2023-02-28T15:54:09.994Z,100.00
2023-02-28T15:57:18.130Z,100.00
2023-02-28T16:00:25.264Z,100.00
2023-02-28T16:03:37.546Z,100.00
2023-02-28T16:06:43.900Z,100.00
2023-02-28T16:09:48.389Z,100.00
2023-02-28T16:12:55.278Z,100.00
2023-02-28T16:16:00.718Z,100.00
2023-02-28T16:19:04.497Z,100.00
2023-02-28T16:22:08.335Z,100.00
2023-02-28T16:25:14.598Z,100.00
2023-02-28T16:28:23.525Z,100.00
2023-02-28T16:31:27.686Z,100.00
2023-02-28T16:34:31.562Z,100.00
2023-02-28T16:37:35.398Z,100.00
2023-02-28T16:40:39.291Z,100.00
2023-02-28T16:43:45.596Z,100.00
2023-02-28T16:46:49.414Z,100.00
2023-02-28T16:49:53.203Z,100.00
2023-02-28T16:52:57.162Z,100.00
2023-02-28T16:56:03.134Z,100.00
2023-02-28T16:59:08.343Z,100.00
2023-02-28T17:02:15.460Z,100.00
2023-02-28T17:05:20.730Z,100.00
2023-02-28T17:08:24.474Z,100.00
2023-02-28T17:11:29.227Z,100.00
2023-02-28T17:14:34.594Z,100.00
2023-02-28T17:17:38.297Z,100.00
2023-02-28T17:20:43.469Z,100.00
2023-02-28T17:23:47.299Z,100.00
2023-02-28T17:26:51.186Z,100.00
2023-02-28T17:29:56.541Z,100.00
2023-02-28T17:33:00.434Z,100.00
2023-02-28T17:36:04.406Z,100.00
2023-02-28T17:39:15.031Z,100.00
2023-02-28T17:42:20.309Z,100.00
2023-02-28T17:45:26.030Z,100.00
2023-02-28T17:48:31.935Z,100.00
2023-02-28T17:51:35.760Z,100.00
2023-02-28T17:54:39.571Z,100.00
2023-02-28T17:57:44.190Z,100.00
2023-02-28T18:00:54.937Z,100.00
2023-02-28T18:03:58.847Z,100.00
2023-02-28T18:07:02.940Z,100.00
2023-02-28T18:10:08.253Z,100.00
2023-02-28T18:13:12.770Z,100.00
2023-02-28T18:16:19.192Z,100.00
2023-02-28T18:19:23.386Z,100.00
2023-02-28T18:22:27.160Z,100.00
2023-02-28T18:25:31.362Z,100.00
2023-02-28T18:28:35.259Z,100.00
2023-02-28T18:31:40.408Z,100.00
2023-02-28T18:34:44.225Z,100.00
2023-02-28T18:37:48.044Z,100.00
2023-02-28T18:40:57.241Z,100.00
2023-02-28T18:44:10.410Z,100.00
2023-02-28T18:47:20.004Z,100.00
2023-02-28T18:50:23.846Z,100.00
2023-02-28T18:53:27.577Z,100.00
2023-02-28T18:56:31.712Z,100.00
2023-02-28T18:59:35.614Z,100.00
2023-02-28T19:02:40.892Z,100.00
2023-02-28T19:05:44.769Z,100.00
2023-02-28T19:08:49.534Z,100.00
2023-02-28T19:11:53.285Z,100.00
2023-02-28T19:14:56.998Z,100.00
2023-02-28T19:18:02.440Z,100.00
2023-02-28T19:21:08.217Z,100.00
2023-02-28T19:24:12.498Z,100.00
2023-02-28T19:27:17.510Z,100.00
2023-02-28T19:30:21.605Z,100.00
2023-02-28T19:33:26.880Z,100.00
2023-02-28T19:36:30.702Z,100.00
2023-02-28T19:39:41.241Z,100.00
2023-02-28T19:42:45.147Z,100.00
2023-02-28T19:45:49.342Z,100.00
2023-02-28T19:48:56.508Z,100.00
2023-02-28T19:52:00.288Z,100.00
2023-02-28T19:55:04.120Z,100.00
2023-02-28T19:58:07.912Z,100.00
2023-02-28T20:01:13.768Z,100.00
2023-02-28T20:04:19.004Z,100.00
2023-02-28T20:07:22.865Z,100.00
2023-02-28T20:10:26.693Z,100.00
2023-02-28T20:13:30.881Z,100.00
2023-02-28T20:16:34.857Z,100.00
2023-02-28T20:19:40.202Z,100.00
2023-02-28T20:22:44.050Z,100.00
2023-02-28T20:25:47.886Z,100.00
2023-02-28T20:28:51.646Z,100.00
2023-02-28T20:31:55.782Z,100.00
2023-02-28T20:35:01.053Z,100.00
2023-02-28T20:38:04.830Z,100.00
2023-02-28T20:41:09.120Z,100.00
2023-02-28T20:44:14.591Z,100.00
2023-02-28T20:47:18.414Z,100.00
2023-02-28T20:50:23.614Z,100.00
2023-02-28T20:53:28.949Z,100.00
2023-02-28T20:56:32.806Z,100.00
2023-02-28T20:59:36.689Z,100.00
2023-02-28T21:02:40.575Z,100.00
2023-02-28T21:05:45.888Z,100.00
2023-02-28T21:08:50.371Z,100.00
2023-02-28T21:11:55.342Z,100.00
2023-02-28T21:14:59.048Z,100.00
2023-02-28T21:18:02.815Z,100.00
2023-02-28T21:21:10.373Z,100.00
2023-02-28T21:24:15.480Z,100.00
2023-02-28T21:27:19.275Z,100.00
2023-02-28T21:30:23.253Z,100.00
2023-02-28T21:33:27.400Z,100.00
2023-02-28T21:36:35.220Z,100.00
2023-02-28T21:39:38.951Z,100.00
2023-02-28T21:42:42.830Z,100.00
2023-02-28T21:45:46.611Z,100.00
2023-02-28T21:48:51.161Z,100.00
2023-02-28T21:51:56.448Z,100.00
2023-02-28T21:55:00.130Z,100.00
2023-02-28T21:58:04.164Z,100.00
2023-02-28T22:01:09.571Z,100.00
2023-02-28T22:04:21.355Z,100.00
2023-02-28T22:07:26.688Z,100.00
2023-02-28T22:10:30.626Z,100.00
2023-02-28T22:13:35.077Z,100.00
2023-02-28T22:16:50.837Z,100.00
2023-02-28T22:19:55.908Z,100.00
2023-02-28T22:23:01.380Z,99.99
2023-02-28T22:26:07.275Z,99.46
2023-02-28T22:29:11.033Z,99.19
2023-02-28T22:32:15.562Z,99.60
2023-02-28T22:35:20.622Z,99.68
2023-02-28T22:38:27.553Z,100.00
2023-02-28T22:41:31.940Z,100.00
2023-02-28T22:44:35.671Z,100.00
2023-02-28T22:47:39.431Z,100.00
2023-02-28T22:50:43.345Z,100.00
2023-02-28T22:53:50.047Z,100.00
2023-02-28T22:56:53.942Z,100.00
2023-02-28T22:59:57.673Z,100.00
2023-02-28T23:03:01.531Z,100.00
2023-02-28T23:06:14.448Z,99.28
2023-02-28T23:09:21.781Z,100.00
2023-02-28T23:12:25.694Z,100.00
2023-02-28T23:15:29.497Z,100.00
2023-02-28T23:18:33.304Z,100.00
2023-02-28T23:21:37.530Z,100.00
2023-02-28T23:24:42.745Z,100.00
2023-02-28T23:27:46.649Z,99.73
2023-02-28T23:30:50.444Z,99.27
2023-02-28T23:33:54.383Z,98.96
2023-02-28T23:37:00.148Z,98.20
2023-02-28T23:40:08.396Z,100.00
2023-02-28T23:43:12.487Z,100.00
2023-02-28T23:46:17.889Z,100.00
2023-02-28T23:49:22.226Z,100.00
2023-02-28T23:52:25.907Z,100.00
2023-02-28T23:55:31.110Z,100.00
2023-02-28T23:58:35.966Z,100.00
